SiteLock Weather in Ekeren and Port of Antwerp Multilingual Website with PHP & AJAX - Nearby METAR Reports

Nearby METAR Reports

 

KSJC - San Jose, California, USA
Distance from station: NO 14km
Ververst: 30/05/2020 13:53
Meestal bewolkt
Meestal bewolkt
 Wind van ZZW
Wind: ZZW 13 km/h
Temperatuur: 17°C
Dauwpunt: 11°C
Vochtigheid: 68%
Barometer: 1012.5 hPa
Clouds: Meestal bewolkt
Visibility: 16 km
Cloud details: Meestal bewolkt 1402 m
2020/05/30 11:53 KSJC 301153Z AUTO 21007KT 10SM BKN046 17/11 A2990 RMK AO2 SLP123 60000 T01720106 10178 20167 53001
KNUQ - Moffett Nas/Mtn, California, USA
Distance from station: N 14km
Ververst: 30/05/2020 14:30
Zwaar bewolkt
Zwaar bewolkt
 Wind van ZO
Wind: ZO 17 km/h
Temperatuur: 18°C
Dauwpunt: 11°C
Vochtigheid: 64%
Barometer: 1012.5 hPa
Clouds: Zwaar bewolkt
Visibility: 16 km
Cloud details: Zwaar bewolkt 1280 m
2020/05/30 12:30 KNUQ 301230Z AUTO 14009KT 10SM OVC042 18/11 A2990 RMK AO2 LTG DSNT N AND NE
 
KPAO - Palo Alto, California, USA
Distance from station: NNW 23km
Ververst: 30/05/2020 00:47
NOT Current
Gedeeltelijk bewolkt
Gedeeltelijk bewolkt
 Wind van N
Wind: N 20 km/h
Temperatuur: 24°C
Dauwpunt: 16°C
Vochtigheid: 61%
Barometer: 1010.2 hPa
Clouds: Gedeeltelijk bewolkt
Visibility: 16 km
Cloud details: Gedeeltelijk bewolkt 3658 m
2020/05/29 22:47 KPAO 292247Z 01011KT 10SM SCT120 24/16 A2983 RMK LAST GPS/VOR N/A AT NIGHT.
KRHV - San Jose/Reid, California, USA
Distance from station: ONO 19km
Ververst: 30/05/2020 06:50
NOT Current
Gedeeltelijk bewolkt
Gedeeltelijk bewolkt
 Wind van ZO
Wind: ZO 19 km/h
Temperatuur: 18°C
Dauwpunt: 11°C
Vochtigheid: 64%
Barometer: 1012.9 hPa
Clouds: Gedeeltelijk bewolkt
Visibility: 16 km
Cloud details: Gedeeltelijk bewolkt 2134 m
2020/05/30 04:50 KRHV 300450Z 14010KT 10SM SCT070 18/11 A2991
 
KOAK - Oakland, California, USA
Distance from station: NNW 50km
Ververst: 30/05/2020 13:53
Meestal bewolkt
Meestal bewolkt
 Wind van Z
Wind: Z 22 km/h
Temperatuur: 19°C
Dauwpunt: 11°C
Vochtigheid: 60%
Barometer: 1012.5 hPa
Clouds: Meestal bewolkt
Visibility: 16 km
Cloud details: Few Clouds 305 m
Meestal bewolkt 1219 m
Meestal bewolkt 3658 m
2020/05/30 11:53 KOAK 301153Z 19012KT 10SM FEW010 BKN040 BKN120 19/11 A2990 RMK AO2 SLP126 60000 T01940111 10194 20183 53007
KSQL - San Carlos Airpo, California, USA
Distance from station: NW 34km
Ververst: 30/05/2020 14:40
Zwaar bewolkt
Zwaar bewolkt
 Wind van ZZO
Wind: ZZO 11 km/h
Temperatuur: 18°C
Dauwpunt: 11°C
Vochtigheid: 64%
Barometer: 1012.9 hPa
Clouds: Zwaar bewolkt
Visibility: 16 km
Cloud details: Few Clouds 1067 m
Zwaar bewolkt 1524 m
2020/05/30 12:40 KSQL 301240Z AUTO 15006KT 10SM FEW035 OVC050 18/11 A2991 RMK AO2
 
KSFO - San Francisco, California, USA
Distance from station: NW 49km
Ververst: 30/05/2020 13:56
Meestal bewolkt
Meestal bewolkt
 Wind van Z
Wind: Z 11 km/h
Temperatuur: 18°C
Dauwpunt: 11°C
Vochtigheid: 64%
Barometer: 1012.2 hPa
Clouds: Meestal bewolkt
Visibility: 16 km
Cloud details: Few Clouds 1006 m
Meestal bewolkt 1524 m
2020/05/30 11:56 KSFO 301156Z 17006KT 10SM FEW033 BKN050 18/11 A2989 RMK AO2 SLP123 T01780106 10189 20161 53007
KE16 - San Martin, California, USA
Distance from station: OZO 43km
Ververst: 30/05/2020 14:25
Zwaar bewolkt
Zwaar bewolkt
 Wind van calm
Wind: Kalm
Temperatuur: 15°C
Dauwpunt: 12°C
Vochtigheid: 82%
Barometer: 1013.5 hPa
Clouds: Zwaar bewolkt
Visibility: 16 km
Cloud details: Zwaar bewolkt 1402 m
2020/05/30 12:25 KE16 301225Z AUTO 00000KT 10SM OVC046 15/12 A2993 RMK AO2
 
KWVI - Watsonville, California, USA
Distance from station: ZZO 44km
Ververst: 30/05/2020 13:53
Zwaar bewolkt
Zwaar bewolkt
 Wind van calm
Wind: Kalm
Temperatuur: 16°C
Dauwpunt: 13°C
Vochtigheid: 83%
Barometer: 1012.9 hPa
Clouds: Zwaar bewolkt
Visibility: 16 km
Cloud details: Zwaar bewolkt 1158 m
2020/05/30 11:53 KWVI 301153Z AUTO 00000KT 10SM OVC038 16/13 A2991 RMK AO2 SLP128 T01560128 10161 20150 55005
KHAF - Half Moon Bay, California, USA
Distance from station: WNW 50km
Ververst: 30/05/2020 14:35
Zwaar bewolkt
Zwaar bewolkt
 Wind van Z
Wind: Z 20 km/h
Temperatuur: 14°C
Dauwpunt: 13°C
Vochtigheid: 94%
Barometer: 1012.9 hPa
Clouds: Zwaar bewolkt
Visibility: 11 km
Cloud details: Few Clouds 122 m
Meestal bewolkt 274 m
Zwaar bewolkt 1524 m
2020/05/30 12:35 KHAF 301235Z AUTO 17011KT 7SM FEW004 BKN009 OVC050 14/13 A2991 RMK AO2
 
KHWD - Hayward, California, USA
Distance from station: N 44km
Ververst: 30/05/2020 13:54
Zwaar bewolkt
Zwaar bewolkt
 Wind van ZZO
Wind: ZZO 9 km/h
Temperatuur: 18°C
Dauwpunt: 10°C
Vochtigheid: 60%
Barometer: 1012.2 hPa
Clouds: Zwaar bewolkt
Visibility: 16 km
Cloud details: Zwaar bewolkt 1250 m
2020/05/30 11:54 KHWD 301154Z 15005KT 10SM OVC041 18/10 A2989 RMK AO2 SLP131 60000 T01830100 10189 20172 53005
KLVK - Livermore, California, USA
Distance from station: NNO 51km
Ververst: 30/05/2020 13:53
Meestal bewolkt
Meestal bewolkt
 Wind van ZZW
Wind: ZZW 11 km/h
Temperatuur: 17°C
Dauwpunt: 9°C
Vochtigheid: 59%
Barometer: 1012.5 hPa
Clouds: Meestal bewolkt
Visibility: 16 km
Cloud details: Meestal bewolkt 3048 m
2020/05/30 11:53 KLVK 301153Z AUTO 21006KT 10SM BKN100 17/09 A2990 RMK AO2 SLP119 T01720094 10172 20161 53004